KRAL/RAL METAR and TAF weather

Enter ICAO airport designator
Station Type Date Time Source
KRAL METAR 2019/04/25 09:53 UTC NOAA

KRAL 250953Z AUTO 00000KT 10SM CLR 15/12 A2997 RMK AO2 SLP133 T01500117


Station Type Date Time Source
KRAL Decoded METAR 2019/04/25 09:53 UTC NOAA

RIVERSIDE MUNICIPAL AIRPORT , CA, United States (KRAL) 33-57N 117-27W 252M
Apr 25, 2019 - 05:53 AM EDT / 2019.04.25 0953 UTC
Wind: Calm:0
Visibility: 10 mile(s):0
Sky conditions: clear
Temperature: 59.0 F (15.0 C)
Dew Point: 53.1 F (11.7 C)
Relative Humidity: 80%
Pressure (altimeter): 29.97 in. Hg (1014 hPa)
ob: KRAL 250953Z AUTO 00000KT 10SM CLR 15/12 A2997 RMK AO2 SLP133 T01500117
cycle: 10

Station Type Date Time Source
KRAL TAF UTC NOAA

Error!

Example: see airport list